Time;durP1;ratioP1;P1;durP2;ratioP2;P2;SDS_P1;SDS_P2;PMS_P1;PMS_P2;Temp;Humidity;BMP_temperature;BMP_pressure;BME280_temperature;BME280_humidity;BME280_pressure;Samples;Min_cycle;Max_cycle;Signal;HPM_P1;HPM_P2
2022/01/25 00:27:47;;;;;;;15.38;9.95;;;0.20;99.90;;;;;;5041978;28;20368;-68
2022/01/25 00:32:50;;;;;;;17.17;10.65;;;0.00;99.90;;;;;;5069576;28;20393;-67
2022/01/25 00:35:16;;;;;;;18.83;11.50;;;0.00;99.90;;;;;;5052281;28;20108;-68
2022/01/25 00:37:42;;;;;;;21.33;12.18;;;0.00;99.90;;;;;;5051762;28;20032;-68
2022/01/25 00:40:08;;;;;;;20.00;12.48;;;0.00;99.90;;;;;;5068824;28;20098;-68
2022/01/25 00:42:33;;;;;;;19.63;11.98;;;0.00;99.90;;;;;;5053451;28;20156;-67
2022/01/25 00:44:59;;;;;;;24.40;13.50;;;0.00;99.90;;;;;;5069035;28;20548;-68
2022/01/25 00:47:25;;;;;;;19.73;12.40;;;0.00;99.90;;;;;;5066598;28;20032;-67
2022/01/25 00:49:53;;;;;;;19.38;12.48;;;0.00;99.90;;;;;;5052129;28;20169;-68
2022/01/25 00:55:04;;;;;;;23.48;12.32;;;0.00;99.90;;;;;;5070445;28;20036;-68
2022/01/25 00:57:30;;;;;;;21.08;11.50;;;-0.10;99.90;;;;;;5069919;28;20028;-67
2022/01/25 00:59:55;;;;;;;23.48;12.00;;;0.00;99.90;;;;;;5057849;28;20032;-68
2022/01/25 01:02:21;;;;;;;26.73;13.05;;;0.00;99.90;;;;;;5052575;28;20028;-68
2022/01/25 01:04:47;;;;;;;21.55;11.38;;;-0.10;99.90;;;;;;5052058;28;20033;-68
2022/01/25 01:07:15;;;;;;;23.90;12.40;;;-0.10;99.90;;;;;;5062553;28;20033;-68
2022/01/25 01:09:44;;;;;;;20.38;11.40;;;-0.20;99.90;;;;;;5031877;28;20029;-68
2022/01/25 01:12:18;;;;;;;16.80;10.52;;;-0.20;99.90;;;;;;5040640;28;20110;-67
2022/01/25 01:15:00;;;;;;;19.75;11.20;;;-0.10;99.90;;;;;;5053705;28;20499;-68
2022/01/25 01:41:47;;;;;;;44.97;13.57;;;-0.40;99.90;;;;;;5064941;28;20104;-68
2022/01/25 01:44:20;;;;;;;44.35;13.13;;;-0.30;99.90;;;;;;5073175;28;20389;-68
2022/01/25 01:47:02;;;;;;;38.60;12.82;;;-0.40;99.90;;;;;;5052637;28;20082;-68
2022/01/25 01:49:29;;;;;;;38.97;10.90;;;-0.40;99.90;;;;;;5071831;28;20082;-69
2022/01/25 01:51:55;;;;;;;31.83;12.55;;;-0.40;99.90;;;;;;5037455;28;20090;-67
2022/01/25 01:54:20;;;;;;;41.58;13.13;;;-0.40;99.90;;;;;;5068763;28;20028;-68
2022/01/25 01:56:46;;;;;;;64.88;13.27;;;-0.40;99.90;;;;;;5054235;28;20030;-68
2022/01/25 01:59:16;;;;;;;29.20;13.07;;;-0.40;99.90;;;;;;5053904;28;20116;-68
2022/01/25 02:01:44;;;;;;;49.28;12.52;;;-0.50;99.90;;;;;;5053328;28;20123;-68
2022/01/25 02:04:11;;;;;;;48.72;13.18;;;-0.50;99.90;;;;;;5034846;28;20036;-67
2022/01/25 02:06:37;;;;;;;28.75;12.80;;;-0.50;99.90;;;;;;5048557;28;20032;-68
2022/01/25 02:09:06;;;;;;;34.58;13.02;;;-0.50;99.90;;;;;;5070319;28;20029;-68
2022/01/25 02:11:32;;;;;;;36.08;13.52;;;-0.50;99.90;;;;;;5058559;28;20562;-67
2022/01/25 02:14:03;;;;;;;28.83;13.93;;;-0.50;99.90;;;;;;5066663;28;20033;-67
2022/01/25 02:24:33;;;;;;;27.55;14.18;;;-0.40;99.90;;;;;;5072459;28;20031;-67
2022/01/25 02:26:59;;;;;;;37.10;14.23;;;-0.30;99.90;;;;;;5043798;28;20612;-69
2022/01/25 02:29:25;;;;;;;27.10;14.00;;;-0.30;99.90;;;;;;5066486;28;20029;-68
2022/01/25 02:31:53;;;;;;;25.58;13.07;;;-0.30;99.90;;;;;;5053702;28;20089;-67
2022/01/25 02:34:18;;;;;;;40.08;13.15;;;-0.30;99.90;;;;;;5053916;28;20100;-67
2022/01/25 02:36:44;;;;;;;33.20;13.25;;;-0.30;99.90;;;;;;5053366;28;20027;-67
2022/01/25 02:39:10;;;;;;;32.78;14.25;;;-0.30;99.90;;;;;;5053156;28;20021;-68
2022/01/25 02:41:37;;;;;;;30.13;14.43;;;-0.30;99.90;;;;;;5058905;28;20025;-67
2022/01/25 02:44:05;;;;;;;32.58;13.13;;;-0.30;99.90;;;;;;5063098;28;20028;-67
2022/01/25 02:48:59;;;;;;;35.30;14.50;;;-0.30;99.90;;;;;;5051259;28;20495;-67
2022/01/25 02:51:39;;;;;;;30.95;13.75;;;-0.40;99.90;;;;;;5059730;28;20033;-68
2022/01/25 02:54:07;;;;;;;39.92;14.48;;;-0.50;99.90;;;;;;5070295;28;20632;-67
2022/01/25 02:56:34;;;;;;;43.08;13.75;;;-0.50;99.90;;;;;;5060145;28;20032;-67
2022/01/25 02:59:00;;;;;;;37.42;14.40;;;-0.60;99.90;;;;;;5038576;28;20028;-67
2022/01/25 03:01:27;;;;;;;29.40;13.98;;;-0.70;99.90;;;;;;5069718;28;20350;-68
2022/01/25 03:03:53;;;;;;;47.58;12.57;;;-0.80;99.90;;;;;;5070365;28;20025;-67
2022/01/25 03:06:20;;;;;;;29.08;11.75;;;-0.90;99.90;;;;;;5061519;28;20036;-67
2022/01/25 03:08:46;;;;;;;31.33;12.52;;;-1.00;99.90;;;;;;5072664;28;20028;-69
2022/01/25 03:11:12;;;;;;;32.15;12.75;;;-1.10;99.90;;;;;;5067176;28;20549;-68
2022/01/25 03:13:51;;;;;;;30.00;12.00;;;-1.10;99.90;;;;;;5068461;28;20040;-68
2022/01/25 03:16:30;;;;;;;21.55;12.13;;;-1.20;99.90;;;;;;5059698;28;20081;-68
2022/01/25 03:19:00;;;;;;;30.17;12.93;;;-1.10;99.90;;;;;;5071969;28;20020;-68
2022/01/25 03:23:56;;;;;;;18.80;11.07;;;-1.20;99.90;;;;;;5084777;28;20032;-67
2022/01/25 03:26:23;;;;;;;21.08;10.75;;;-1.10;99.90;;;;;;5053355;28;20017;-68
2022/01/25 03:28:49;;;;;;;23.02;10.85;;;-1.10;99.90;;;;;;5054224;28;20115;-67
2022/01/25 03:31:16;;;;;;;18.65;11.40;;;-1.10;99.90;;;;;;5048990;28;20051;-68
2022/01/25 03:33:42;;;;;;;16.52;9.88;;;-1.00;99.90;;;;;;5053045;28;20036;-68
2022/01/25 03:36:08;;;;;;;21.52;10.88;;;-1.00;99.90;;;;;;5053201;28;20571;-67
2022/01/25 03:38:39;;;;;;;29.13;10.70;;;-1.00;99.90;;;;;;5059746;28;20182;-68
2022/01/25 03:41:06;;;;;;;27.48;10.38;;;-0.90;99.90;;;;;;5073180;28;20024;-68
2022/01/25 03:43:33;;;;;;;23.48;10.50;;;-0.90;99.90;;;;;;5064097;28;20028;-67
2022/01/25 03:46:07;;;;;;;21.38;10.55;;;-0.90;99.90;;;;;;5055519;28;20036;-68
2022/01/25 03:50:59;;;;;;;33.72;11.15;;;-0.80;99.90;;;;;;5088310;28;20362;-68
2022/01/25 03:53:25;;;;;;;43.65;10.25;;;-0.80;99.90;;;;;;5069297;28;20115;-68
2022/01/25 03:55:51;;;;;;;38.75;10.43;;;-0.90;99.90;;;;;;5054822;28;20024;-67
2022/01/25 03:58:17;;;;;;;53.47;11.35;;;-0.90;99.90;;;;;;5065195;28;20025;-68
2022/01/25 04:00:44;;;;;;;66.28;11.45;;;-0.90;99.90;;;;;;5069733;28;20025;-67
2022/01/25 04:03:19;;;;;;;55.97;11.60;;;-1.00;99.90;;;;;;5061938;28;20036;-67
2022/01/25 04:08:11;;;;;;;68.65;10.93;;;-1.20;99.90;;;;;;5090560;28;20070;-68
2022/01/25 04:10:37;;;;;;;54.20;10.57;;;-1.30;99.90;;;;;;5072796;28;20098;-67
2022/01/25 04:13:04;;;;;;;48.22;10.57;;;-1.40;99.90;;;;;;5053803;28;20089;-67
2022/01/25 04:15:30;;;;;;;39.10;10.52;;;-1.50;99.90;;;;;;5069563;28;20029;-68
2022/01/25 04:18:24;;;;;;;20.40;9.95;;;-1.50;99.90;;;;;;5069748;28;20408;-67
2022/01/25 04:21:10;;;;;;;37.97;11.13;;;-1.60;99.90;;;;;;5072762;28;20491;-69
2022/01/25 04:26:37;;;;;;;26.48;11.00;;;-1.50;99.90;;;;;;4982831;28;20031;-67
2022/01/25 04:29:03;;;;;;;29.65;11.68;;;-1.50;99.90;;;;;;5033688;28;20040;-67
2022/01/25 04:31:29;;;;;;;33.20;12.55;;;-1.50;99.90;;;;;;5069195;28;20029;-67
2022/01/25 04:50:08;;;;;;;28.75;14.27;;;-1.20;99.90;;;;;;5093548;28;20034;-68
2022/01/25 04:52:45;;;;;;;32.72;14.63;;;-1.10;99.90;;;;;;5071884;28;20603;-68
2022/01/25 04:57:55;;;;;;;28.00;14.05;;;-1.10;99.90;;;;;;5091480;28;20048;-70
2022/01/25 05:00:22;;;;;;;24.02;12.82;;;-1.10;99.90;;;;;;5076556;28;20020;-70
2022/01/25 05:05:38;;;;;;;25.95;13.50;;;-1.10;99.90;;;;;;5075550;28;20028;-71
2022/01/25 05:08:16;;;;;;;34.33;15.50;;;-1.10;99.90;;;;;;5072626;28;20499;-71
2022/01/25 05:11:23;;;;;;;30.05;14.88;;;-1.00;99.90;;;;;;5076100;28;20032;-70
2022/01/25 05:13:46;;;;;;;25.95;13.48;;;-1.00;99.90;;;;;;5084037;28;20136;-70
2022/01/25 05:19:21;;;;;;;19.70;10.25;;;-1.00;99.90;;;;;;5074277;28;20032;-70
2022/01/25 05:24:41;;;;;;;22.52;12.10;;;-1.00;99.90;;;;;;5093607;28;20383;-70
2022/01/25 05:27:09;;;;;;;20.40;11.27;;;-1.00;99.90;;;;;;5069514;28;20395;-70
2022/01/25 05:29:35;;;;;;;21.02;10.50;;;-1.00;99.90;;;;;;5069445;28;20024;-70
2022/01/25 05:32:00;;;;;;;23.58;10.73;;;-1.00;99.90;;;;;;5075911;28;20032;-70
2022/01/25 05:34:26;;;;;;;22.15;10.80;;;-1.00;99.90;;;;;;5076700;28;20035;-70
2022/01/25 05:36:53;;;;;;;21.75;10.48;;;-1.00;99.90;;;;;;5075374;28;20093;-68
2022/01/25 05:39:29;;;;;;;17.80;9.75;;;-1.00;99.90;;;;;;5069582;28;20460;-70
2022/01/25 05:42:13;;;;;;;15.25;8.90;;;-1.10;99.90;;;;;;5069781;28;20055;-70
2022/01/25 05:47:33;;;;;;;20.05;9.23;;;-1.30;99.90;;;;;;5093260;28;20379;-70
2022/01/25 05:49:59;;;;;;;19.77;9.65;;;-1.40;99.90;;;;;;5074363;28;20020;-69
2022/01/25 05:52:26;;;;;;;25.40;9.85;;;-1.50;99.90;;;;;;5075585;28;20027;-71
2022/01/25 05:54:52;;;;;;;21.50;9.30;;;-1.60;99.90;;;;;;5070875;28;20545;-70
2022/01/25 05:57:18;;;;;;;26.92;9.70;;;-1.70;99.90;;;;;;5074898;28;20151;-70
2022/01/25 05:59:43;;;;;;;13.82;8.52;;;-1.70;99.90;;;;;;5066750;28;20047;-69
2022/01/25 06:02:09;;;;;;;19.70;8.88;;;-1.80;99.90;;;;;;5075798;28;20103;-70
2022/01/25 06:04:35;;;;;;;23.13;10.23;;;-1.80;99.90;;;;;;5091099;28;20459;-69
2022/01/25 06:07:00;;;;;;;19.85;9.75;;;-1.80;99.90;;;;;;5075076;28;20024;-69
2022/01/25 06:09:26;;;;;;;23.88;10.57;;;-1.70;99.90;;;;;;5064180;28;20131;-70
2022/01/25 06:11:53;;;;;;;21.13;10.38;;;-1.70;99.90;;;;;;5063176;28;20101;-70
2022/01/25 06:14:19;;;;;;;22.13;10.75;;;-1.70;99.90;;;;;;5075870;28;20020;-69
2022/01/25 06:16:45;;;;;;;22.27;10.15;;;-1.70;99.90;;;;;;5068873;28;20028;-69
2022/01/25 06:19:11;;;;;;;19.52;9.88;;;-1.70;99.90;;;;;;5054481;28;20031;-69
2022/01/25 06:21:36;;;;;;;20.58;9.90;;;-1.70;99.90;;;;;;5056734;28;20024;-70
2022/01/25 06:24:02;;;;;;;20.30;10.50;;;-1.70;99.90;;;;;;5071983;28;20757;-70
2022/01/25 06:26:28;;;;;;;27.55;11.65;;;-1.70;99.90;;;;;;5073179;28;20028;-70
2022/01/25 06:28:54;;;;;;;31.13;12.68;;;-1.60;99.90;;;;;;5074133;28;20020;-70
2022/01/25 06:31:20;;;;;;;27.85;11.60;;;-1.60;99.90;;;;;;5075190;28;20455;-71
2022/01/25 06:33:46;;;;;;;30.48;13.02;;;-1.60;99.90;;;;;;5071410;28;20039;-70
2022/01/25 06:36:13;;;;;;;33.28;13.05;;;-1.60;99.90;;;;;;5072998;28;20036;-70
2022/01/25 06:38:38;;;;;;;28.48;11.98;;;-1.60;99.90;;;;;;5072232;28;20434;-70
2022/01/25 06:41:04;;;;;;;25.50;12.40;;;-1.60;99.90;;;;;;5074709;28;20169;-70
2022/01/25 06:43:31;;;;;;;23.80;12.90;;;-1.60;99.90;;;;;;5073267;28;20058;-69
2022/01/25 06:46:01;;;;;;;27.77;13.18;;;-1.70;99.90;;;;;;5074041;28;20478;-70
2022/01/25 06:48:27;;;;;;;33.60;14.90;;;-1.60;99.90;;;;;;5070702;28;20032;-71
2022/01/25 06:50:53;;;;;;;35.85;16.33;;;-1.60;99.90;;;;;;5074499;28;20483;-70
2022/01/25 06:53:18;;;;;;;36.08;15.57;;;-1.60;99.90;;;;;;5074842;28;20032;-70
2022/01/25 06:55:44;;;;;;;29.48;14.63;;;-1.60;99.90;;;;;;5070807;28;20441;-68
2022/01/25 06:58:10;;;;;;;39.80;16.60;;;-1.60;99.90;;;;;;5070751;28;20031;-68
2022/01/25 07:00:36;;;;;;;32.90;15.95;;;-1.60;99.90;;;;;;5073968;28;20032;-68
2022/01/25 07:03:02;;;;;;;31.98;15.15;;;-1.50;99.90;;;;;;5055060;28;20029;-69
2022/01/25 07:05:28;;;;;;;38.00;15.98;;;-1.50;99.90;;;;;;5067375;28;20059;-71
2022/01/25 07:07:54;;;;;;;35.13;15.73;;;-1.50;99.90;;;;;;5073512;28;20116;-70
2022/01/25 07:10:21;;;;;;;45.38;16.42;;;-1.50;99.90;;;;;;5074308;28;20048;-70
2022/01/25 07:12:47;;;;;;;46.40;17.05;;;-1.50;99.90;;;;;;5073785;28;20073;-70
2022/01/25 07:15:13;;;;;;;39.58;17.17;;;-1.50;99.90;;;;;;5089501;28;20020;-69
2022/01/25 07:17:40;;;;;;;41.85;17.75;;;-1.50;99.90;;;;;;5090460;28;20032;-70
2022/01/25 07:20:07;;;;;;;40.40;17.15;;;-1.50;99.90;;;;;;5073865;28;20028;-69
2022/01/25 07:22:34;;;;;;;46.38;18.08;;;-1.60;99.90;;;;;;5070640;28;20024;-70
2022/01/25 07:25:01;;;;;;;45.70;19.48;;;-1.50;99.90;;;;;;5072340;28;20661;-71
2022/01/25 07:27:27;;;;;;;46.08;18.17;;;-1.60;99.90;;;;;;5073394;28;20039;-69
2022/01/25 07:29:52;;;;;;;54.25;17.45;;;-1.50;99.90;;;;;;5068374;28;20016;-70
2022/01/25 07:32:18;;;;;;;45.20;16.63;;;-1.60;99.90;;;;;;5090941;28;20036;-69
2022/01/25 07:34:44;;;;;;;40.13;15.10;;;-1.50;99.90;;;;;;5072121;28;20484;-70
2022/01/25 07:37:10;;;;;;;34.58;14.02;;;-1.50;99.90;;;;;;5067320;28;20031;-70
2022/01/25 07:39:35;;;;;;;36.60;14.80;;;-1.60;99.90;;;;;;5070393;28;20027;-70
2022/01/25 07:42:01;;;;;;;39.22;15.85;;;-1.60;99.90;;;;;;5073588;28;20051;-69
2022/01/25 07:44:31;;;;;;;41.30;17.73;;;-1.60;99.90;;;;;;5091640;28;20036;-69
2022/01/25 07:46:57;;;;;;;47.33;18.02;;;-1.50;99.90;;;;;;5073429;28;20036;-69
2022/01/25 07:49:27;;;;;;;46.53;17.42;;;-1.50;99.90;;;;;;5071117;28;20028;-69
2022/01/25 07:51:53;;;;;;;42.10;17.02;;;-1.40;99.90;;;;;;5072324;28;20054;-70
2022/01/25 07:54:22;;;;;;;45.90;19.17;;;-1.40;99.90;;;;;;5071676;28;20426;-69
2022/01/25 07:56:48;;;;;;;48.85;18.95;;;-1.30;99.90;;;;;;5072863;28;20059;-71
2022/01/25 07:59:14;;;;;;;43.63;18.20;;;-1.20;99.90;;;;;;5072313;28;20422;-69
2022/01/25 08:01:40;;;;;;;42.55;18.17;;;-1.10;99.90;;;;;;5073369;28;20020;-69
2022/01/25 08:04:08;;;;;;;61.17;19.77;;;-1.10;99.90;;;;;;5072171;28;20059;-70
2022/01/25 08:06:35;;;;;;;35.95;16.45;;;-1.00;99.90;;;;;;5070780;28;20468;-70
2022/01/25 08:09:01;;;;;;;48.58;17.35;;;-1.00;99.90;;;;;;5072119;28;20028;-70
2022/01/25 08:11:27;;;;;;;55.33;19.35;;;-1.00;99.90;;;;;;5071496;28;20095;-71
2022/01/25 08:14:00;;;;;;;44.95;17.52;;;-1.00;99.90;;;;;;5073185;28;20034;-70
2022/01/25 08:16:26;;;;;;;39.92;17.58;;;-1.00;99.90;;;;;;5073036;28;20020;-70
2022/01/25 08:18:52;;;;;;;44.75;17.80;;;-1.00;99.90;;;;;;5090531;28;20020;-69
2022/01/25 08:21:18;;;;;;;41.65;16.55;;;-1.00;99.90;;;;;;5069873;28;20459;-71
2022/01/25 08:23:43;;;;;;;50.58;18.60;;;-0.90;99.90;;;;;;5057219;28;20589;-70
2022/01/25 08:26:09;;;;;;;42.33;19.33;;;-0.80;99.90;;;;;;5069174;28;20032;-70
2022/01/25 08:28:34;;;;;;;37.58;17.88;;;-0.70;99.90;;;;;;5061818;28;20020;-70
2022/01/25 08:31:00;;;;;;;34.60;15.38;;;-0.70;99.90;;;;;;5078909;28;20168;-70
2022/01/25 08:33:26;;;;;;;32.00;15.43;;;-0.60;99.90;;;;;;5076747;28;20115;-70
2022/01/25 08:35:51;;;;;;;36.00;16.50;;;-0.60;99.90;;;;;;5072824;28;20031;-69
2022/01/25 08:38:17;;;;;;;39.47;15.45;;;-0.50;99.90;;;;;;5075090;28;20035;-70
2022/01/25 08:40:43;;;;;;;35.17;16.27;;;-0.50;99.90;;;;;;5076517;28;20012;-69
2022/01/25 08:43:08;;;;;;;39.40;17.63;;;-0.60;99.90;;;;;;5076618;28;20395;-70
2022/01/25 08:45:34;;;;;;;38.70;15.73;;;-0.60;99.90;;;;;;5073084;28;20111;-69
2022/01/25 08:48:00;;;;;;;35.78;17.27;;;-0.50;99.90;;;;;;5071550;28;20369;-71
2022/01/25 08:50:26;;;;;;;34.92;15.90;;;-0.50;99.90;;;;;;5067839;28;20039;-71
2022/01/25 08:52:51;;;;;;;36.08;16.80;;;-0.40;99.90;;;;;;5093892;28;20059;-70
2022/01/25 08:55:17;;;;;;;38.80;17.23;;;-0.30;99.90;;;;;;5077075;28;20035;-70
2022/01/25 08:57:43;;;;;;;31.83;15.95;;;-0.30;99.90;;;;;;5056192;28;20036;-70
2022/01/25 09:00:11;;;;;;;29.48;15.13;;;-0.30;99.90;;;;;;5056905;28;20469;-71
2022/01/25 09:02:36;;;;;;;31.85;17.00;;;-0.20;99.90;;;;;;5074549;28;20122;-71
2022/01/25 09:05:03;;;;;;;32.50;15.98;;;-0.10;99.90;;;;;;5076217;28;20094;-71
2022/01/25 09:07:29;;;;;;;27.35;14.93;;;0.00;99.90;;;;;;5075710;28;20530;-70
2022/01/25 09:09:55;;;;;;;32.85;16.33;;;0.00;99.90;;;;;;5076231;28;20043;-69
2022/01/25 09:12:21;;;;;;;36.75;17.23;;;0.10;99.90;;;;;;5076873;28;20107;-70
2022/01/25 09:14:46;;;;;;;49.25;21.60;;;0.10;99.90;;;;;;5075950;28;20028;-73
2022/01/25 09:17:12;;;;;;;39.15;19.40;;;0.10;99.90;;;;;;5075828;28;20078;-72
2022/01/25 09:19:38;;;;;;;41.45;19.20;;;0.30;99.90;;;;;;5076104;28;20054;-69
2022/01/25 09:22:06;;;;;;;38.60;18.45;;;0.40;99.90;;;;;;5076511;28;20056;-68
2022/01/25 09:24:32;;;;;;;35.50;17.30;;;0.50;99.90;;;;;;5075420;28;20527;-68
2022/01/25 09:26:58;;;;;;;36.22;17.70;;;0.50;99.90;;;;;;5064443;28;20111;-68
2022/01/25 09:29:23;;;;;;;40.60;17.33;;;0.60;99.90;;;;;;5073045;28;20131;-69
2022/01/25 09:31:49;;;;;;;38.92;16.88;;;0.60;99.90;;;;;;5076158;28;20028;-69
2022/01/25 09:34:15;;;;;;;34.95;16.45;;;0.60;99.90;;;;;;5069562;28;20020;-68
2022/01/25 09:36:41;;;;;;;35.80;16.95;;;0.60;99.90;;;;;;5075541;28;20020;-69
2022/01/25 09:39:07;;;;;;;35.10;17.23;;;0.70;99.90;;;;;;5074947;28;20441;-69
2022/01/25 09:41:33;;;;;;;37.63;17.27;;;0.70;99.90;;;;;;5076189;28;20016;-69
2022/01/25 09:43:58;;;;;;;32.83;16.95;;;0.80;99.90;;;;;;5074375;28;20024;-69
2022/01/25 09:46:24;;;;;;;34.83;17.20;;;0.80;99.90;;;;;;5078596;28;20380;-68
2022/01/25 09:48:51;;;;;;;33.10;17.40;;;0.80;99.90;;;;;;5061433;28;20064;-69
2022/01/25 09:51:19;;;;;;;39.67;18.20;;;0.90;99.90;;;;;;5056063;28;20029;-69
2022/01/25 09:53:45;;;;;;;37.78;18.92;;;0.90;99.90;;;;;;5069229;28;20024;-68
2022/01/25 09:56:11;;;;;;;34.95;17.85;;;1.00;99.90;;;;;;5075643;28;20042;-69
2022/01/25 09:58:36;;;;;;;34.58;17.25;;;1.00;99.90;;;;;;5074386;28;20056;-69
2022/01/25 10:01:04;;;;;;;33.00;16.77;;;1.10;99.90;;;;;;5071392;28;20036;-69
2022/01/25 10:03:36;;;;;;;34.35;17.50;;;1.10;99.90;;;;;;5092883;28;20035;-70
2022/01/25 10:06:03;;;;;;;37.25;18.40;;;1.10;99.90;;;;;;5074244;28;20028;-69
2022/01/25 10:08:32;;;;;;;32.10;17.65;;;1.10;99.90;;;;;;5062617;28;20571;-69
2022/01/25 10:11:00;;;;;;;33.35;17.98;;;1.20;99.90;;;;;;5063319;28;20430;-69
2022/01/25 10:13:30;;;;;;;38.22;18.00;;;1.20;99.90;;;;;;5075443;28;20372;-69
2022/01/25 10:16:06;;;;;;;36.72;18.45;;;1.20;99.90;;;;;;5075280;28;20062;-70
2022/01/25 10:18:52;;;;;;;38.40;18.35;;;1.20;99.90;;;;;;5074339;28;20127;-69
2022/01/25 10:21:21;;;;;;;34.15;18.55;;;1.20;99.90;;;;;;5075083;28;20108;-69
2022/01/25 10:23:59;;;;;;;38.88;18.52;;;1.20;99.90;;;;;;5074932;28;20028;-69
2022/01/25 10:26:25;;;;;;;40.35;19.98;;;1.30;99.90;;;;;;5075124;28;20044;-69
2022/01/25 10:28:51;;;;;;;38.80;19.00;;;1.30;99.90;;;;;;5071004;28;20047;-69
2022/01/25 10:31:17;;;;;;;35.85;19.58;;;1.30;99.90;;;;;;5074692;28;20123;-68
2022/01/25 10:33:51;;;;;;;39.72;19.27;;;1.30;99.90;;;;;;5074040;28;20035;-69
2022/01/25 10:36:22;;;;;;;46.28;23.30;;;1.30;99.90;;;;;;5078658;28;20035;-68
2022/01/25 10:38:52;;;;;;;39.58;19.42;;;1.40;99.90;;;;;;5072880;28;20490;-69
2022/01/25 10:41:36;;;;;;;39.72;20.75;;;1.40;99.90;;;;;;5074900;28;20130;-68
2022/01/25 10:44:05;;;;;;;40.97;19.48;;;1.40;99.90;;;;;;5072752;28;20039;-68
2022/01/25 10:46:31;;;;;;;42.92;20.63;;;1.50;99.90;;;;;;5085672;28;20396;-69
2022/01/25 10:48:59;;;;;;;44.55;21.17;;;1.50;99.90;;;;;;5067545;28;20558;-68
2022/01/25 10:51:29;;;;;;;46.25;21.20;;;1.60;99.90;;;;;;5070949;28;20388;-68
2022/01/25 10:54:16;;;;;;;44.40;21.45;;;1.60;99.90;;;;;;5073007;28;20069;-68
2022/01/25 10:56:45;;;;;;;42.45;21.60;;;1.60;99.90;;;;;;5073786;28;20035;-68
2022/01/25 10:59:18;;;;;;;44.45;21.08;;;1.60;99.90;;;;;;5073591;28;20024;-69
2022/01/25 11:01:53;;;;;;;43.92;21.05;;;1.70;99.90;;;;;;5074281;28;20020;-68
2022/01/25 11:04:24;;;;;;;43.38;21.35;;;1.70;99.90;;;;;;5073964;28;20028;-68
2022/01/25 11:07:03;;;;;;;44.33;21.02;;;1.70;99.90;;;;;;5073322;28;20027;-68
2022/01/25 11:09:36;;;;;;;39.03;20.48;;;1.70;99.90;;;;;;5073425;28;20039;-68
2022/01/25 11:12:04;;;;;;;37.45;19.58;;;1.80;99.90;;;;;;5073983;28;20054;-69
2022/01/25 11:14:50;;;;;;;43.97;21.08;;;1.80;99.90;;;;;;5072287;28;20032;-68
2022/01/25 11:17:27;;;;;;;40.47;20.45;;;1.90;99.90;;;;;;5091421;28;20030;-67
2022/01/25 11:19:56;;;;;;;46.85;23.10;;;1.90;99.90;;;;;;5069899;28;20032;-68
2022/01/25 11:22:26;;;;;;;44.88;22.08;;;2.00;99.90;;;;;;5071094;28;20450;-68
2022/01/25 11:25:00;;;;;;;41.55;20.77;;;2.10;99.90;;;;;;5072121;28;20054;-68
2022/01/25 11:27:33;;;;;;;46.22;21.83;;;2.10;99.90;;;;;;5068025;28;20034;-68
2022/01/25 11:30:10;;;;;;;44.28;21.08;;;2.20;99.90;;;;;;5073978;28;20081;-68
2022/01/25 11:32:55;;;;;;;39.58;20.05;;;2.20;99.90;;;;;;5071672;28;20028;-68
2022/01/25 11:35:25;;;;;;;43.00;20.23;;;2.30;99.90;;;;;;5073330;28;20044;-69
2022/01/25 11:38:00;;;;;;;43.63;21.15;;;2.40;99.90;;;;;;5073290;28;20079;-69
2022/01/25 11:40:50;;;;;;;39.78;20.80;;;2.40;99.90;;;;;;5072476;28;20048;-68
2022/01/25 11:43:19;;;;;;;44.13;20.25;;;2.40;99.90;;;;;;5067679;28;20059;-68
2022/01/25 11:45:50;;;;;;;39.47;20.25;;;2.40;99.90;;;;;;5080782;28;20020;-68
2022/01/25 11:48:23;;;;;;;51.67;23.10;;;2.40;99.90;;;;;;5072607;28;20028;-68
2022/01/25 11:50:48;;;;;;;52.25;22.90;;;2.40;99.90;;;;;;5071717;28;20122;-68
2022/01/25 11:53:33;;;;;;;45.15;21.65;;;2.50;99.90;;;;;;5072488;28;20447;-68
2022/01/25 11:56:17;;;;;;;41.55;20.65;;;2.50;99.90;;;;;;5059074;28;20032;-68
2022/01/25 11:59:05;;;;;;;34.92;19.27;;;2.50;99.90;;;;;;5072284;28;20028;-68
2022/01/25 12:01:42;;;;;;;38.35;19.67;;;2.50;99.90;;;;;;5071157;28;20025;-68
2022/01/25 12:04:11;;;;;;;41.10;20.35;;;2.50;99.90;;;;;;5090788;28;20040;-68
2022/01/25 12:07:01;;;;;;;48.00;23.02;;;2.50;99.90;;;;;;5072707;28;20093;-68
2022/01/25 12:09:49;;;;;;;46.63;22.05;;;2.70;99.90;;;;;;5072576;28;20484;-66
2022/01/25 12:12:18;;;;;;;43.05;21.23;;;2.80;99.90;;;;;;5066929;28;20040;-67
2022/01/25 12:14:55;;;;;;;43.22;21.85;;;3.00;99.90;;;;;;5091612;28;20031;-66
2022/01/25 12:17:24;;;;;;;42.42;21.67;;;3.20;99.90;;;;;;5071894;28;20020;-67
2022/01/25 12:20:08;;;;;;;45.10;22.67;;;3.40;99.90;;;;;;5073160;28;20025;-66
2022/01/25 12:22:46;;;;;;;40.10;21.02;;;3.60;99.90;;;;;;5075280;28;20051;-67
2022/01/25 12:28:27;;;;;;;40.83;21.35;;;3.90;99.90;;;;;;5071257;28;20036;-67
2022/01/25 12:31:19;;;;;;;35.13;19.25;;;4.00;99.90;;;;;;5068184;28;20028;-69
2022/01/25 12:33:46;;;;;;;37.08;20.27;;;4.10;99.90;;;;;;5072432;28;20480;-67
2022/01/25 12:36:35;;;;;;;36.08;19.92;;;4.30;99.90;;;;;;5072567;28;20108;-67
2022/01/25 12:39:12;;;;;;;33.55;18.90;;;4.40;99.90;;;;;;5064573;28;20039;-67
2022/01/25 12:41:43;;;;;;;36.65;20.48;;;4.50;99.90;;;;;;5091169;28;20111;-67
2022/01/25 12:44:09;;;;;;;34.35;19.58;;;4.60;99.90;;;;;;5072468;28;20036;-67
2022/01/25 12:46:40;;;;;;;37.97;20.10;;;4.70;99.90;;;;;;5072372;28;20222;-67
2022/01/25 12:49:25;;;;;;;36.00;20.48;;;4.70;99.90;;;;;;5071122;28;20492;-66
2022/01/25 12:51:57;;;;;;;38.05;20.48;;;4.70;99.90;;;;;;5073053;28;20063;-67
2022/01/25 12:54:28;;;;;;;33.65;19.23;;;4.70;99.90;;;;;;5070707;28;20032;-67
2022/01/25 12:56:56;;;;;;;36.45;20.50;;;4.60;99.90;;;;;;5065437;28;20400;-67
2022/01/25 12:59:27;;;;;;;36.42;20.38;;;4.50;99.90;;;;;;5089841;28;20525;-67
2022/01/25 13:01:57;;;;;;;36.72;19.98;;;4.40;99.90;;;;;;5072621;28;20024;-67
2022/01/25 13:04:32;;;;;;;32.95;19.25;;;4.30;99.90;;;;;;5072162;28;20549;-67
2022/01/25 13:07:00;;;;;;;36.25;20.23;;;4.20;99.90;;;;;;5072220;28;20028;-67
2022/01/25 13:09:34;;;;;;;35.65;19.70;;;4.20;99.90;;;;;;5071920;28;20028;-67
2022/01/25 13:17:17;;;;;;;;;;;4.00;99.90;;;;;;5094410;28;20026;-67
2022/01/25 13:19:49;;;;;;;37.08;20.45;;;3.90;99.90;;;;;;5070593;28;19915;-68
2022/01/25 13:22:39;;;;;;;42.80;22.15;;;3.80;99.90;;;;;;5075664;28;20074;-67
2022/01/25 13:25:25;;;;;;;45.42;23.40;;;3.80;99.90;;;;;;5070493;28;20035;-68
2022/01/25 13:27:54;;;;;;;38.83;20.73;;;3.70;99.90;;;;;;5060633;28;20035;-68
2022/01/25 13:33:14;;;;;;;37.75;21.48;;;3.50;99.90;;;;;;5094019;28;20027;-68
2022/01/25 13:35:50;;;;;;;48.13;24.00;;;3.40;99.90;;;;;;5076505;28;20036;-68
2022/01/25 13:38:23;;;;;;;49.00;24.02;;;3.40;99.90;;;;;;5063340;28;20020;-68
2022/01/25 13:41:25;;;;;;;48.15;23.52;;;3.30;99.90;;;;;;5075042;28;20063;-68
2022/01/25 13:46:39;;;;;;;46.70;24.17;;;3.20;99.90;;;;;;5094179;28;20094;-67
2022/01/25 13:49:13;;;;;;;43.10;22.92;;;3.10;99.90;;;;;;5092390;28;20036;-67
2022/01/25 13:52:15;;;;;;;43.55;22.17;;;3.00;99.90;;;;;;5075133;28;20039;-68
2022/01/25 13:54:48;;;;;;;42.70;22.33;;;2.90;99.90;;;;;;5054495;28;20040;-68
2022/01/25 13:57:14;;;;;;;48.63;23.60;;;2.80;99.90;;;;;;5074116;28;20036;-68
2022/01/25 13:59:43;;;;;;;51.95;26.73;;;2.80;99.90;;;;;;5073981;28;20059;-68
2022/01/25 14:02:23;;;;;;;54.15;27.92;;;2.70;99.90;;;;;;5072991;28;20101;-68
2022/01/25 14:04:59;;;;;;;54.72;25.13;;;2.70;99.90;;;;;;5065586;28;20029;-68
2022/01/25 14:07:30;;;;;;;46.63;23.50;;;2.60;99.90;;;;;;5093007;28;20446;-68
2022/01/25 14:10:10;;;;;;;55.53;25.55;;;2.60;99.90;;;;;;5093497;28;20065;-68
2022/01/25 14:24:33;;;;;;;66.25;27.73;;;2.30;99.90;;;;;;5069093;28;20055;-68
2022/01/25 14:27:50;;;;;;;62.75;27.17;;;2.30;99.90;;;;;;5074478;28;20027;-68
2022/01/25 14:30:19;;;;;;;59.22;26.88;;;2.30;99.90;;;;;;5088288;28;20028;-68
2022/01/25 14:33:11;;;;;;;58.88;27.50;;;2.20;99.90;;;;;;5066437;28;20020;-68
2022/01/25 14:35:45;;;;;;;69.30;28.70;;;2.20;99.90;;;;;;5073864;28;20024;-68
2022/01/25 14:38:27;;;;;;;70.70;28.45;;;2.20;99.90;;;;;;5073088;28;20089;-68
2022/01/25 14:41:27;;;;;;;62.85;26.50;;;2.10;99.90;;;;;;5068023;28;20028;-68
2022/01/25 14:44:01;;;;;;;64.93;27.45;;;2.20;99.90;;;;;;5070040;28;20036;-69
2022/01/25 14:46:41;;;;;;;60.67;26.27;;;2.20;99.90;;;;;;5074452;28;20396;-68
2022/01/25 14:49:12;;;;;;;66.57;27.92;;;2.20;99.90;;;;;;5072887;28;20128;-68
2022/01/25 14:51:51;;;;;;;76.77;30.20;;;2.20;99.90;;;;;;5074357;28;20031;-68
2022/01/25 14:54:43;;;;;;;69.07;27.40;;;2.10;99.90;;;;;;5092987;28;20028;-69
2022/01/25 14:57:18;;;;;;;75.00;28.27;;;2.10;99.90;;;;;;5074216;28;20057;-69
2022/01/25 15:00:09;;;;;;;65.57;27.48;;;2.00;99.90;;;;;;5065542;28;20255;-69
2022/01/25 15:02:42;;;;;;;70.95;27.75;;;2.00;99.90;;;;;;5070014;28;20045;-69